Thunder radar more information blitzortung!


Radar de pluja more information rain snow radar


Visita la nostra xarxa de llocs de meteo:

Template documentation
and downloads

And another site



Wind From: 11-12-2017 11:00 Until: 14:59 warning for: Wind Level: Yellow info button

Pagina Historial Weather Underground text

Diari Resum Juny 6, 2016 Unitats:  Mètric    Imperial   Tant
« Previous Dia
SegĂźent Dia »
Diari Setmana Mensual Anual Personalitzada
  Maxima: Minima: Media:
Temperatura: 30.1 °C 14.8 °C 23.1 °C
Punt de rosada: 15.3 °C 5.7 °C 11 °C
Humitat: 84 % 29 % 49 %
Wind Speed: 25.9 km/h 0.0 km/h 6 km/h
RĂ fegues de vent: 25.9 km/h - -
Vent:- - SW
Pression baro: 1019.9 hPa 1016.8 hPa -
Precipitacions: 0.0 mm    
Historical Graphs
 
 
Dades de taula per Juny 6, 2016
Temps Temperatura Punt de rosada Pression baro Vent Wind Speed RĂ fegues de vent Humitat Rainfall Rate (Hourly)
00:00 18.5 °C 13.6 °C 1017.8 hPa Calm     73 % 0.0 mm
00:05 18.5 °C 13.6 °C 1016.8 hPa Calm     73 % 0.0 mm
00:10 18.4 °C 13.4 °C 1016.8 hPa Calm     73 % 0.0 mm
00:15 18.4 °C 13.4 °C 1016.8 hPa SW 3.7 km/h 3.7 km/h 73 % 0.0 mm
00:20 15.6 °C 12.2 °C 1017.8 hPa SW 1.6 km/h 3.2 km/h 80 % 0.0 mm
00:30 15.3 °C 11.9 °C 1017.8 hPa SW 1.6 km/h 3.2 km/h 80 % 0.0 mm
00:40 15.2 °C 11.8 °C 1017.8 hPa SW 3.2 km/h 3.2 km/h 80 % 0.0 mm
00:50 15.0 °C 11.9 °C 1017.8 hPa SW 1.6 km/h 3.2 km/h 82 % 0.0 mm
01:00 15.0 °C 11.9 °C 1017.8 hPa SW 1.6 km/h 3.2 km/h 82 % 0.0 mm
01:10 15.0 °C 12.1 °C 1017.8 hPa Calm     83 % 0.0 mm
01:20 14.9 °C 11.8 °C 1017.8 hPa SW 1.6 km/h 3.2 km/h 82 % 0.0 mm
01:30 14.8 °C 11.8 °C 1017.8 hPa WSW 1.6 km/h 3.2 km/h 82 % 0.0 mm
01:40 14.8 °C 11.9 °C 1017.8 hPa Calm   4.8 km/h 83 % 0.0 mm
01:50 14.9 °C 12.1 °C 1017.8 hPa SW 3.2 km/h 3.2 km/h 83 % 0.0 mm
02:00 15.2 °C 12.3 °C 1017.8 hPa SW 1.6 km/h 1.6 km/h 83 % 0.0 mm
02:10 15.5 °C 12.6 °C 1017.8 hPa Calm   3.2 km/h 83 % 0.0 mm
02:20 15.9 °C 13.2 °C 1017.8 hPa Calm     84 % 0.0 mm
02:30 16.2 °C 13.1 °C 1017.8 hPa SSE 1.6 km/h 3.2 km/h 82 % 0.0 mm
02:40 16.5 °C 13.2 °C 1018.8 hPa ENE 3.2 km/h 4.8 km/h 81 % 0.0 mm
02:50 16.9 °C 13.4 °C 1018.8 hPa NE 1.6 km/h 3.2 km/h 80 % 0.0 mm
03:00 17.4 °C 13.7 °C 1018.8 hPa ENE 1.6 km/h 3.2 km/h 79 % 0.0 mm
03:10 17.7 °C 13.8 °C 1018.8 hPa Calm   4.8 km/h 78 % 0.0 mm
03:20 18.3 °C 14.2 °C 1018.8 hPa NE 1.6 km/h 3.2 km/h 77 % 0.0 mm
03:30 18.5 °C 14.4 °C 1018.8 hPa East 1.6 km/h 3.2 km/h 77 % 0.0 mm
03:40 18.7 °C 14.4 °C 1018.8 hPa SSW 1.6 km/h 4.8 km/h 76 % 0.0 mm
03:50 19.2 °C 14.4 °C 1019.9 hPa South 1.6 km/h 3.2 km/h 74 % 0.0 mm
04:00 19.2 °C 14.4 °C 1019.9 hPa Calm   4.8 km/h 74 % 0.0 mm
04:10 20.4 °C 14.9 °C 1018.8 hPa South 1.6 km/h 3.2 km/h 71 % 0.0 mm
04:20 20.9 °C 15.2 °C 1018.8 hPa ESE 1.6 km/h 3.2 km/h 70 % 0.0 mm
04:30 21.2 °C 15.3 °C 1018.8 hPa ESE 4.8 km/h 4.8 km/h 69 % 0.0 mm
04:40 21.5 °C 15.1 °C 1018.8 hPa East 3.2 km/h 3.2 km/h 67 % 0.0 mm
04:50 21.9 °C 15.3 °C 1018.8 hPa East 3.2 km/h 3.2 km/h 66 % 0.0 mm
05:00 22.1 °C 14.7 °C 1018.8 hPa WSW 1.6 km/h 3.2 km/h 63 % 0.0 mm
05:10 22.6 °C 14.9 °C 1018.8 hPa SSW 1.6 km/h 8.0 km/h 62 % 0.0 mm
05:20 22.9 °C 13.7 °C 1019.9 hPa SSW 4.8 km/h 8.0 km/h 56 % 0.0 mm
05:30 23.2 °C 13.1 °C 1019.9 hPa SW 8.0 km/h 8.0 km/h 53 % 0.0 mm
05:40 23.8 °C 13.1 °C 1017.8 hPa SW 4.8 km/h 6.4 km/h 51 % 0.0 mm
05:50 24.2 °C 13.1 °C 1017.8 hPa SW 4.8 km/h 9.7 km/h 50 % 0.0 mm
06:00 24.5 °C 13.4 °C 1017.8 hPa SW 3.2 km/h 11.3 km/h 50 % 0.0 mm
06:10 24.8 °C 13.3 °C 1017.8 hPa SW 3.2 km/h 8.0 km/h 49 % 0.0 mm
06:20 25.5 °C 13.7 °C 1017.8 hPa SW 1.6 km/h 6.4 km/h 48 % 0.0 mm
06:30 25.6 °C 13.4 °C 1017.8 hPa SW 4.8 km/h 12.9 km/h 47 % 0.0 mm
06:40 26.0 °C 13.8 °C 1017.8 hPa SW 4.8 km/h 4.8 km/h 47 % 0.0 mm
06:50 27.0 °C 14.4 °C 1017.8 hPa SSW 4.8 km/h 6.4 km/h 46 % 0.0 mm
07:00 26.9 °C 14.3 °C 1017.8 hPa SSW 3.2 km/h 6.4 km/h 46 % 0.0 mm
07:10 27.4 °C 14.4 °C 1016.8 hPa SW 3.2 km/h 4.8 km/h 45 % 0.0 mm
07:20 27.8 °C 14.4 °C 1017.8 hPa SW 1.6 km/h 4.8 km/h 44 % 0.0 mm
07:30 27.5 °C 13.8 °C 1017.8 hPa WSW 4.8 km/h 8.0 km/h 43 % 0.0 mm
07:40 27.9 °C 13.8 °C 1017.8 hPa SW 4.8 km/h 4.8 km/h 42 % 0.0 mm
07:50 28.5 °C 14.3 °C 1017.8 hPa South 8.0 km/h 8.0 km/h 42 % 0.0 mm
08:00 28.5 °C 14.3 °C 1017.8 hPa SSW 3.2 km/h 9.7 km/h 42 % 0.0 mm
08:10 28.9 °C 14.3 °C 1017.8 hPa SW 9.7 km/h 12.9 km/h 41 % 0.0 mm
08:20 28.8 °C 13.8 °C 1017.8 hPa SW 8.0 km/h 9.7 km/h 40 % 0.0 mm
08:30 29.0 °C 13.2 °C 1017.8 hPa SW 9.7 km/h 9.7 km/h 38 % 0.0 mm
08:40 29.4 °C 13.6 °C 1016.8 hPa SSW 8.0 km/h 14.5 km/h 38 % 0.0 mm
08:50 29.3 °C 13.1 °C 1017.8 hPa SSW 4.8 km/h 9.7 km/h 37 % 0.0 mm
09:00 29.0 °C 12.4 °C 1017.8 hPa SW 11.3 km/h 17.7 km/h 36 % 0.0 mm
09:10 28.9 °C 12.3 °C 1017.8 hPa SW 9.7 km/h 16.1 km/h 36 % 0.0 mm
09:20 29.1 °C 11.2 °C 1017.8 hPa SW 4.8 km/h 12.9 km/h 33 % 0.0 mm
09:40 28.8 °C 10.9 °C 1017.8 hPa SW 9.7 km/h 12.9 km/h 33 % 0.0 mm
14:49 29.5 °C 11.1 °C 1018.8 hPa SW 13.0 km/h 13.0 km/h 32 % 0.0 mm
14:54 30.0 °C 11.0 °C 1018.8 hPa WNW 9.3 km/h 9.3 km/h 31 % 0.0 mm
14:59 30.1 °C 10.6 °C 1018.8 hPa SSW 13.0 km/h 13.0 km/h 30 % 0.0 mm
15:04 29.6 °C 10.7 °C 1017.8 hPa SW 13.0 km/h 13.0 km/h 31 % 0.0 mm
15:09 29.0 °C 10.2 °C 1017.8 hPa SW 10.8 km/h 10.8 km/h 31 % 0.0 mm
15:14 28.5 °C 9.7 °C 1017.8 hPa SW 11.1 km/h 11.1 km/h 31 % 0.0 mm
15:19 28.4 °C 9.6 °C 1017.8 hPa SSW 14.8 km/h 14.8 km/h 31 % 0.0 mm
15:24 28.4 °C 9.6 °C 1017.8 hPa SSW 11.1 km/h 11.1 km/h 31 % 0.0 mm
15:29 28.5 °C 9.7 °C 1017.8 hPa SW 13.0 km/h 13.0 km/h 31 % 0.0 mm
15:34 28.6 °C 9.8 °C 1017.8 hPa WSW 13.0 km/h 13.0 km/h 31 % 0.0 mm
15:39 28.9 °C 10.1 °C 1017.8 hPa South 11.1 km/h 11.1 km/h 31 % 0.0 mm
15:44 29.8 °C 10.8 °C 1017.8 hPa SW 7.4 km/h 7.4 km/h 31 % 0.0 mm
15:49 29.5 °C 10.6 °C 1018.8 hPa WSW 9.3 km/h 9.3 km/h 31 % 0.0 mm
15:54 29.2 °C 10.3 °C 1018.8 hPa SW 11.1 km/h 11.1 km/h 31 % 0.0 mm
15:59 28.9 °C 10.1 °C 1018.8 hPa SW 24.1 km/h 24.1 km/h 31 % 0.0 mm
16:04 28.6 °C 9.8 °C 1017.8 hPa SW 11.1 km/h 11.1 km/h 31 % 0.0 mm
16:09 28.3 °C 9.1 °C 1017.8 hPa SSW 9.3 km/h 9.3 km/h 30 % 0.0 mm
16:14 27.9 °C 9.2 °C 1017.8 hPa WSW 16.1 km/h 16.1 km/h 31 % 0.0 mm
16:19 27.8 °C 9.1 °C 1018.8 hPa SSW 9.3 km/h 9.3 km/h 31 % 0.0 mm
16:24 27.5 °C 8.4 °C 1018.8 hPa SSW 20.4 km/h 20.4 km/h 30 % 0.0 mm
16:39 26.8 °C 7.3 °C 1018.8 hPa SSW 11.1 km/h 11.1 km/h 29 % 0.0 mm
16:49 26.0 °C 6.6 °C 1018.8 hPa South 17.5 km/h 17.5 km/h 29 % 0.0 mm
16:54 25.7 °C 6.3 °C 1018.8 hPa SSW 20.4 km/h 20.4 km/h 29 % 0.0 mm
16:59 25.7 °C 6.3 °C 1018.8 hPa SSW 25.9 km/h 25.9 km/h 29 % 0.0 mm
17:04 25.3 °C 6.0 °C 1017.8 hPa SSW 20.4 km/h 20.4 km/h 29 % 0.0 mm
17:09 25.2 °C 5.9 °C 1017.8 hPa SW 19.5 km/h 19.5 km/h 29 % 0.0 mm
17:14 25.0 °C 5.7 °C 1017.8 hPa SW 20.4 km/h 20.4 km/h 29 % 0.0 mm
17:19 24.9 °C 6.1 °C 1018.8 hPa SSW 15.6 km/h 15.6 km/h 30 % 0.0 mm
17:24 24.7 °C 5.9 °C 1018.8 hPa SW 14.8 km/h 14.8 km/h 30 % 0.0 mm
17:29 24.7 °C 5.9 °C 1018.8 hPa WSW 18.5 km/h 18.5 km/h 30 % 0.0 mm
17:34 24.6 °C 5.9 °C 1017.8 hPa SSE 11.1 km/h 14.5 km/h 30 % 0.0 mm
17:44 24.3 °C 6.6 °C 1017.8 hPa South 13.0 km/h 13.0 km/h 32 % 0.0 mm
17:49 24.3 °C 6.6 °C 1017.8 hPa SW 14.8 km/h 14.8 km/h 32 % 0.0 mm
17:55 24.2 °C 6.9 °C 1017.8 hPa WSW 13.0 km/h 13.0 km/h 33 % 0.0 mm
18:00 24.1 °C 7.7 °C 1017.8 hPa West 20.4 km/h 20.4 km/h 35 % 0.0 mm
18:05 24.0 °C 8.0 °C 1017.8 hPa SW 11.1 km/h 11.1 km/h 36 % 0.0 mm
18:10 24.0 °C 8.0 °C 1017.8 hPa SW 7.4 km/h 7.6 km/h 36 % 0.0 mm
18:15 24.1 °C 8.5 °C 1017.8 hPa SW 3.2 km/h 9.7 km/h 37 % 0.0 mm
18:20 24.1 °C 8.9 °C 1017.8 hPa SW 9.3 km/h 9.3 km/h 38 % 0.0 mm
18:25 24.1 °C 8.9 °C 1017.8 hPa SW 4.8 km/h 8.0 km/h 38 % 0.0 mm
18:30 24.0 °C 8.8 °C 1017.8 hPa NNE 3.7 km/h 3.7 km/h 38 % 0.0 mm
18:35 23.9 °C 8.7 °C 1017.8 hPa Calm   4.8 km/h 38 % 0.0 mm
18:40 24.0 °C 9.2 °C 1017.8 hPa WNW 3.7 km/h 3.7 km/h 39 % 0.0 mm
18:45 24.0 °C 9.2 °C 1017.8 hPa South 1.6 km/h 4.8 km/h 39 % 0.0 mm
18:50 24.1 °C 9.2 °C 1017.8 hPa Calm   3.2 km/h 39 % 0.0 mm
18:55 24.2 °C 9.4 °C 1017.8 hPa ESE 1.6 km/h 8.0 km/h 39 % 0.0 mm
19:00 24.4 °C 9.9 °C 1017.8 hPa SSW 1.6 km/h 4.8 km/h 40 % 0.0 mm
19:05 24.5 °C 10.0 °C 1017.8 hPa SW 1.6 km/h 4.8 km/h 40 % 0.0 mm
19:10 24.3 °C 9.8 °C 1017.8 hPa WSW 5.6 km/h 5.6 km/h 40 % 0.0 mm
19:15 24.3 °C 9.8 °C 1017.8 hPa SW 1.9 km/h 2.3 km/h 40 % 0.0 mm
19:20 24.4 °C 9.9 °C 1017.8 hPa WSW 5.6 km/h 5.6 km/h 40 % 0.0 mm
19:25 24.4 °C 10.3 °C 1017.8 hPa WSW 3.7 km/h 3.7 km/h 41 % 0.0 mm
19:30 24.5 °C 10.4 °C 1017.8 hPa Calm   3.2 km/h 41 % 0.0 mm
19:35 24.6 °C 10.4 °C 1017.8 hPa SW 1.9 km/h 1.9 km/h 41 % 0.0 mm
19:40 24.5 °C 10.4 °C 1017.8 hPa WSW 5.6 km/h 5.6 km/h 41 % 0.0 mm
19:45 24.4 °C 10.3 °C 1017.8 hPa SW 3.2 km/h 6.4 km/h 41 % 0.0 mm
19:50 24.1 °C 10.7 °C 1018.8 hPa WSW 11.3 km/h 16.1 km/h 43 % 0.0 mm
19:55 23.6 °C 10.2 °C 1018.8 hPa WSW 11.3 km/h 20.9 km/h 43 % 0.0 mm
20:00 23.1 °C 10.2 °C 1018.8 hPa SW 8.0 km/h 14.5 km/h 44 % 0.0 mm
20:05 23.0 °C 10.1 °C 1019.9 hPa SW 3.2 km/h 12.9 km/h 44 % 0.0 mm
20:10 23.0 °C 10.4 °C 1019.9 hPa SW 9.3 km/h 9.3 km/h 45 % 0.0 mm
20:15 22.9 °C 10.7 °C 1019.9 hPa SW 9.7 km/h 16.1 km/h 46 % 0.0 mm
20:20 22.6 °C 10.7 °C 1019.9 hPa SW 8.0 km/h 12.9 km/h 47 % 0.0 mm
20:25 22.5 °C 10.6 °C 1019.9 hPa SW 7.4 km/h 7.4 km/h 47 % 0.0 mm
20:30 22.4 °C 10.6 °C 1019.9 hPa SW 3.2 km/h 8.0 km/h 47 % 0.0 mm
20:35 22.4 °C 10.6 °C 1019.9 hPa SW 4.2 km/h 4.2 km/h 47 % 0.0 mm
20:40 22.3 °C 10.8 °C 1019.9 hPa WSW 3.7 km/h   48 % 0.0 mm
20:45 22.3 °C 10.8 °C 1019.9 hPa SW 3.7 km/h 3.7 km/h 48 % 0.0 mm
20:50 22.2 °C 10.7 °C 1018.8 hPa WSW 5.6 km/h 5.6 km/h 48 % 0.0 mm
20:55 22.1 °C 10.6 °C 1018.8 hPa SW 3.7 km/h 3.9 km/h 48 % 0.0 mm
21:00 22.0 °C 10.8 °C 1018.8 hPa SW 3.2 km/h 4.8 km/h 49 % 0.0 mm
21:05 21.9 °C 10.7 °C 1018.8 hPa SW 5.6 km/h 5.6 km/h 49 % 0.0 mm
21:10 21.8 °C 10.6 °C 1018.8 hPa SW 1.9 km/h 1.9 km/h 49 % 0.0 mm
21:15 21.7 °C 10.5 °C 1018.8 hPa SW 5.6 km/h 5.6 km/h 49 % 0.0 mm
21:20 21.7 °C 10.5 °C 1017.8 hPa SW 3.7 km/h 3.7 km/h 49 % 0.0 mm
21:25 21.6 °C 10.7 °C 1017.8 hPa SW 7.4 km/h 7.4 km/h 50 % 0.0 mm
21:30 21.6 °C 10.7 °C 1017.8 hPa West 3.9 km/h 3.9 km/h 50 % 0.0 mm
21:35 21.6 °C 10.7 °C 1017.8 hPa WSW 1.6 km/h 3.2 km/h 50 % 0.0 mm
21:40 21.6 °C 10.7 °C 1017.8 hPa West 2.6 km/h 2.6 km/h 50 % 0.0 mm
21:45 21.6 °C 10.7 °C 1017.8 hPa WSW 3.9 km/h 3.9 km/h 50 % 0.0 mm
21:50 21.5 °C 10.6 °C 1017.8 hPa WSW 3.9 km/h 3.9 km/h 50 % 0.0 mm
21:55 21.5 °C 10.6 °C 1017.8 hPa SSW 3.7 km/h 3.7 km/h 50 % 0.0 mm
22:00 21.4 °C 10.8 °C 1017.8 hPa SW 5.6 km/h 5.6 km/h 51 % 0.0 mm
22:05 21.4 °C 10.8 °C 1017.8 hPa SW 3.9 km/h 4.2 km/h 51 % 0.0 mm
22:10 21.4 °C 10.8 °C 1017.8 hPa SW 3.9 km/h 4.2 km/h 51 % 0.0 mm
22:15 21.4 °C 10.8 °C 1017.8 hPa SW 3.9 km/h 4.2 km/h 51 % 0.0 mm
22:20 17.5 °C 11.3 °C 1019.9 hPa Calm     67 % 0.0 mm
22:25 21.4 °C 10.8 °C 1017.8 hPa SW 7.4 km/h 7.4 km/h 51 % 0.0 mm
22:30 21.4 °C 10.8 °C 1017.8 hPa West 2.6 km/h 2.6 km/h 51 % 0.0 mm
22:35 21.4 °C 10.8 °C 1017.8 hPa West 1.9 km/h 2.3 km/h 51 % 0.0 mm
22:40 21.3 °C 10.7 °C 1017.8 hPa West 1.9 km/h 2.3 km/h 51 % 0.0 mm
22:45 21.2 °C 10.7 °C 1017.8 hPa West 1.9 km/h 2.3 km/h 51 % 0.0 mm
22:50 21.1 °C 10.6 °C 1018.8 hPa Calm     51 % 0.0 mm
22:55 20.9 °C 10.7 °C 1018.8 hPa WSW 1.9 km/h   52 % 0.0 mm
23:00 20.8 °C 10.6 °C 1018.8 hPa WSW 1.9 km/h   52 % 0.0 mm
23:05 20.6 °C 10.4 °C 1018.8 hPa Calm   3.2 km/h 52 % 0.0 mm
23:10 20.4 °C 10.2 °C 1018.8 hPa SW 1.9 km/h   52 % 0.0 mm
23:15 20.3 °C 10.4 °C 1018.8 hPa SW 1.9 km/h   53 % 0.0 mm
23:20 20.3 °C 10.4 °C 1018.8 hPa SW 1.9 km/h   53 % 0.0 mm
23:25 20.2 °C 10.3 °C 1018.8 hPa SW 1.9 km/h   53 % 0.0 mm
23:30 20.2 °C 10.3 °C 1018.8 hPa SW 1.9 km/h   53 % 0.0 mm
23:40 20.2 °C 10.3 °C 1018.8 hPa SW 1.9 km/h   53 % 0.0 mm
23:45 19.7 °C 10.1 °C 1018.8 hPa WSW 5.0 km/h 5.0 km/h 54 % 0.0 mm
23:50 19.3 °C 10.1 °C 1018.8 hPa SW 5.6 km/h 5.6 km/h 55 % 0.0 mm
23:55 19.2 °C 9.9 °C 1018.8 hPa WSW 3.7 km/h 3.7 km/h 55 % 0.0 mm
Meteo Sesrovires
Elogis d' Weather Underground - 3.25 mb

Guio original per  Jim McMurry - jmcmurry@mwt.net Adaptat per a la plantilla per  Wim van der Kuil - Leuven-Template.eu

Trobareu la nostra informacio del temps tambe a:

Weather Underground

AWEKAS